createdAt,value
2017-10-28T00:03:42.381Z,1.90
2017-10-28T00:08:44.405Z,1.50
2017-10-28T00:13:46.400Z,1.43
2017-10-28T00:18:48.374Z,1.50
2017-10-28T00:23:50.375Z,1.53
2017-10-28T00:28:52.355Z,2.30
2017-10-28T00:34:00.471Z,1.50
2017-10-28T00:39:02.498Z,2.13
2017-10-28T00:44:04.554Z,1.27
2017-10-28T00:49:06.570Z,1.80
2017-10-28T00:54:09.340Z,1.57
2017-10-28T00:59:11.335Z,1.43
2017-10-28T01:04:13.370Z,1.23
2017-10-28T01:09:15.324Z,1.10
2017-10-28T01:14:17.345Z,1.63
2017-10-28T01:19:20.335Z,1.53
2017-10-28T01:24:23.171Z,1.90
2017-10-28T01:29:26.050Z,1.80
2017-10-28T01:34:28.079Z,1.60
2017-10-28T01:39:30.893Z,1.80
2017-10-28T01:44:32.924Z,2.40
2017-10-28T01:49:34.923Z,2.40
2017-10-28T01:54:36.848Z,1.47
2017-10-28T01:59:39.218Z,1.93
2017-10-28T02:04:41.150Z,1.37
2017-10-28T02:09:43.832Z,1.83
2017-10-28T02:14:45.837Z,1.90
2017-10-28T02:19:47.834Z,2.10
2017-10-28T02:24:49.767Z,1.97
2017-10-28T02:29:51.715Z,3.30
2017-10-28T02:34:53.644Z,1.10
2017-10-28T02:39:56.562Z,2.37
2017-10-28T02:44:58.580Z,1.37
2017-10-28T02:50:00.624Z,1.67
2017-10-28T02:55:02.722Z,1.17
2017-10-28T03:00:04.816Z,1.27
2017-10-28T03:05:09.398Z,1.20
2017-10-28T03:10:11.491Z,1.10
2017-10-28T03:15:13.527Z,2.90
2017-10-28T03:20:16.254Z,1.47
2017-10-28T03:25:19.035Z,1.53
2017-10-28T03:30:21.034Z,1.53
2017-10-28T03:35:23.064Z,1.30
2017-10-28T03:40:25.029Z,1.40
2017-10-28T03:45:27.044Z,1.10
2017-10-28T03:50:29.113Z,1.40
2017-10-28T03:55:31.849Z,1.10
2017-10-28T04:00:33.959Z,1.00
2017-10-28T04:05:36.382Z,1.27
2017-10-28T04:10:38.391Z,1.37
2017-10-28T04:15:40.379Z,1.40
2017-10-28T04:20:42.304Z,1.07
2017-10-28T04:25:44.583Z,1.10
2017-10-28T04:30:46.590Z,1.33
2017-10-28T04:35:52.088Z,0.93
2017-10-28T04:40:54.366Z,1.30
2017-10-28T04:45:56.355Z,1.10
2017-10-28T04:50:58.303Z,1.17
2017-10-28T04:56:00.273Z,1.70
2017-10-28T05:01:03.454Z,1.13
2017-10-28T05:06:05.497Z,1.57
2017-10-28T05:11:07.548Z,1.30
2017-10-28T05:16:10.336Z,1.40
2017-10-28T05:21:14.613Z,2.00
2017-10-28T05:26:22.780Z,1.87
2017-10-28T05:31:24.899Z,3.27
2017-10-28T05:36:27.004Z,2.53
2017-10-28T05:41:28.992Z,2.10
2017-10-28T05:46:31.755Z,2.80
2017-10-28T05:51:33.743Z,2.70
2017-10-28T05:56:35.694Z,3.07
2017-10-28T06:01:37.635Z,3.10
2017-10-28T06:06:40.299Z,4.00
2017-10-28T06:11:42.192Z,3.83
2017-10-28T06:16:44.705Z,4.77
2017-10-28T06:21:47.344Z,3.70
2017-10-28T06:26:49.582Z,4.50
2017-10-28T06:31:51.519Z,4.83
2017-10-28T06:36:53.435Z,5.20
2017-10-28T06:41:55.369Z,5.70
2017-10-28T06:46:57.272Z,5.33
2017-10-28T06:51:59.161Z,5.90
2017-10-28T06:57:01.198Z,7.63
2017-10-28T07:02:03.235Z,6.77
2017-10-28T07:07:05.219Z,6.30
2017-10-28T07:12:07.964Z,7.30
2017-10-28T07:17:10.055Z,6.20
2017-10-28T07:22:12.902Z,6.70
2017-10-28T07:27:21.537Z,6.10
2017-10-28T07:32:24.813Z,6.50
2017-10-28T07:37:26.714Z,6.70
2017-10-28T07:42:28.638Z,5.70
2017-10-28T07:47:30.559Z,6.20
2017-10-28T07:52:32.479Z,5.90
2017-10-28T07:57:34.360Z,6.30
2017-10-28T08:02:36.394Z,5.57
2017-10-28T08:07:39.179Z,5.93
2017-10-28T08:12:41.112Z,7.83
2017-10-28T08:17:43.028Z,5.53
2017-10-28T08:22:44.961Z,6.00
2017-10-28T08:27:46.899Z,5.87
2017-10-28T08:32:48.815Z,5.77
2017-10-28T08:37:50.708Z,6.30
2017-10-28T08:42:52.631Z,6.17
2017-10-28T08:47:54.834Z,6.30
2017-10-28T08:52:56.885Z,5.57
2017-10-28T08:57:59.696Z,6.37
2017-10-28T09:03:01.628Z,6.80
2017-10-28T09:08:03.617Z,5.43
2017-10-28T09:13:05.494Z,6.10
2017-10-28T09:18:07.493Z,7.37
2017-10-28T09:23:10.122Z,5.60
2017-10-28T09:28:12.761Z,5.27
2017-10-28T09:33:14.675Z,4.00
2017-10-28T09:38:16.662Z,4.20
2017-10-28T09:43:18.614Z,4.77
2017-10-28T09:48:20.619Z,4.20
2017-10-28T09:53:22.540Z,4.73
2017-10-28T09:58:24.474Z,4.23
2017-10-28T10:03:26.411Z,4.13
2017-10-28T10:08:28.399Z,4.30
2017-10-28T10:13:30.311Z,4.37
2017-10-28T10:18:32.208Z,4.70
2017-10-28T10:23:34.136Z,3.00
2017-10-28T10:28:36.040Z,4.00
2017-10-28T10:33:37.926Z,3.00
2017-10-28T10:38:39.816Z,3.43
2017-10-28T10:43:41.770Z,3.47
2017-10-28T10:48:44.471Z,2.77
2017-10-28T10:53:46.404Z,3.10
2017-10-28T10:58:49.207Z,3.17
2017-10-28T11:03:51.154Z,3.17
2017-10-28T11:08:53.248Z,3.67
2017-10-28T11:13:55.189Z,2.87
2017-10-28T11:18:57.140Z,4.20
2017-10-28T11:23:59.825Z,3.27
2017-10-28T11:29:01.770Z,3.70
2017-10-28T11:34:03.707Z,4.10
2017-10-28T11:39:05.627Z,3.57
2017-10-28T11:44:07.592Z,4.37
2017-10-28T11:49:11.977Z,3.30
2017-10-28T11:54:14.804Z,3.20
2017-10-28T11:59:16.688Z,3.53
2017-10-28T12:04:18.889Z,3.93
2017-10-28T12:09:20.996Z,3.83
2017-10-28T12:14:25.612Z,3.80
2017-10-28T12:19:28.474Z,3.13
2017-10-28T12:24:30.423Z,3.50
2017-10-28T12:29:32.348Z,4.50
2017-10-28T12:34:34.283Z,3.80
2017-10-28T12:39:37.017Z,3.77
2017-10-28T12:44:39.676Z,3.30
2017-10-28T12:49:41.648Z,3.83
2017-10-28T12:54:43.620Z,4.07
2017-10-28T12:59:45.538Z,4.80
2017-10-28T13:04:48.233Z,3.97
2017-10-28T13:09:50.151Z,4.23
2017-10-28T13:14:59.085Z,3.93
2017-10-28T13:20:01.656Z,3.77
2017-10-28T13:25:03.803Z,3.70
2017-10-28T13:30:05.948Z,5.23
2017-10-28T13:35:08.012Z,3.73
2017-10-28T13:40:10.252Z,4.07
2017-10-28T13:45:12.551Z,4.40
2017-10-28T13:50:14.648Z,4.53
2017-10-28T13:55:16.591Z,4.50
2017-10-28T14:00:18.512Z,4.57
2017-10-28T14:05:21.220Z,4.50
2017-10-28T14:10:22.926Z,4.70
2017-10-28T14:15:25.574Z,3.93
2017-10-28T14:20:27.627Z,4.27
2017-10-28T14:25:29.860Z,4.37
2017-10-28T14:30:31.913Z,4.93
2017-10-28T14:35:34.483Z,5.33
2017-10-28T14:40:36.509Z,4.67
2017-10-28T14:45:38.659Z,5.27
2017-10-28T14:50:40.631Z,4.43
2017-10-28T14:55:42.512Z,4.50
2017-10-28T15:00:44.416Z,3.93
2017-10-28T15:05:47.075Z,4.50
2017-10-28T15:10:49.072Z,3.73
2017-10-28T15:15:51.011Z,3.67
2017-10-28T15:20:52.914Z,4.17
2017-10-28T15:25:54.850Z,5.10
2017-10-28T15:30:57.522Z,4.67
2017-10-28T15:35:59.481Z,3.80
2017-10-28T15:41:02.155Z,4.20
2017-10-28T15:46:04.043Z,4.97
2017-10-28T15:51:05.961Z,4.77
2017-10-28T15:56:07.867Z,4.37
2017-10-28T16:01:09.887Z,4.00
2017-10-28T16:06:11.851Z,4.13
2017-10-28T16:11:13.761Z,5.03
2017-10-28T16:16:15.670Z,5.53
2017-10-28T16:21:17.587Z,5.60
2017-10-28T16:26:19.589Z,6.90
2017-10-28T16:31:21.535Z,5.50
2017-10-28T16:36:24.215Z,6.50
2017-10-28T16:41:26.134Z,6.67
2017-10-28T16:46:28.039Z,6.63
2017-10-28T16:51:30.509Z,6.30
2017-10-28T16:56:32.834Z,7.23
2017-10-28T17:01:34.763Z,6.87
2017-10-28T17:06:36.695Z,6.70
2017-10-28T17:11:39.471Z,7.63
2017-10-28T17:16:41.364Z,8.50
2017-10-28T17:21:43.286Z,8.00
2017-10-28T17:26:45.228Z,7.97
2017-10-28T17:31:47.310Z,9.00
2017-10-28T17:36:49.223Z,9.03
2017-10-28T17:41:51.244Z,9.53
2017-10-28T17:46:53.940Z,9.27
2017-10-28T17:51:55.859Z,9.70
2017-10-28T17:56:58.614Z,9.73
2017-10-28T18:02:00.607Z,8.73
2017-10-28T18:07:02.592Z,9.30
2017-10-28T18:12:05.313Z,10.10
2017-10-28T18:17:07.952Z,9.67
2017-10-28T18:22:09.903Z,10.23
2017-10-28T18:27:11.806Z,9.20
2017-10-28T18:32:13.717Z,9.30
2017-10-28T18:37:15.676Z,9.10
2017-10-28T18:42:17.729Z,9.37
2017-10-28T18:47:19.703Z,9.60
2017-10-28T18:52:21.640Z,7.70
2017-10-28T18:57:24.344Z,7.40
2017-10-28T19:02:26.909Z,8.27
2017-10-28T19:07:29.655Z,7.73
2017-10-28T19:12:31.992Z,7.67
2017-10-28T19:17:35.045Z,7.00
2017-10-28T19:22:37.116Z,6.63
2017-10-28T19:27:40.129Z,6.33
2017-10-28T19:32:44.290Z,5.40
2017-10-28T19:37:46.653Z,5.40
2017-10-28T19:42:49.663Z,4.47
2017-10-28T19:47:51.697Z,5.07
2017-10-28T19:52:53.751Z,5.27
2017-10-28T19:57:55.896Z,4.30
2017-10-28T20:02:58.354Z,4.33
2017-10-28T20:08:01.926Z,3.47
2017-10-28T20:13:04.027Z,3.73
2017-10-28T20:18:10.540Z,3.70
2017-10-28T20:23:14.301Z,3.57
2017-10-28T20:28:19.550Z,3.53
2017-10-28T20:33:21.520Z,3.67
2017-10-28T20:38:23.469Z,3.80
2017-10-28T20:43:25.456Z,3.80
2017-10-28T20:48:27.431Z,4.07
2017-10-28T20:53:29.424Z,4.40
2017-10-28T20:58:31.345Z,5.10
2017-10-28T21:03:33.992Z,4.40
2017-10-28T21:08:36.266Z,5.03
2017-10-28T21:13:39.077Z,4.70
2017-10-28T21:18:41.191Z,5.40
2017-10-28T21:23:43.117Z,5.13
2017-10-28T21:28:45.776Z,5.87
2017-10-28T21:33:47.760Z,5.80
2017-10-28T21:38:49.704Z,6.03
2017-10-28T21:43:51.806Z,6.63
2017-10-28T21:48:53.730Z,6.43
2017-10-28T21:53:57.016Z,6.00
2017-10-28T21:58:59.163Z,6.30
2017-10-28T22:04:01.296Z,5.83
2017-10-28T22:09:04.152Z,6.30
2017-10-28T22:14:06.239Z,7.30
2017-10-28T22:19:08.897Z,6.10
2017-10-28T22:24:10.850Z,5.53
2017-10-28T22:29:12.773Z,4.40
2017-10-28T22:34:15.465Z,4.60
2017-10-28T22:39:17.408Z,5.07
2017-10-28T22:44:20.137Z,5.23
2017-10-28T22:49:22.081Z,5.57
2017-10-28T22:54:24.035Z,5.10
2017-10-28T22:59:26.672Z,3.93
2017-10-28T23:04:28.604Z,3.77
2017-10-28T23:09:30.617Z,4.37
2017-10-28T23:14:32.616Z,3.50
2017-10-28T23:19:35.272Z,3.30
2017-10-28T23:24:38.762Z,3.07
2017-10-28T23:29:41.479Z,2.30
2017-10-28T23:34:44.051Z,2.47
2017-10-28T23:39:45.934Z,2.60
2017-10-28T23:44:47.911Z,2.80
2017-10-28T23:49:49.896Z,3.30
2017-10-28T23:54:51.864Z,2.80
2017-10-28T23:59:53.769Z,2.63
